セントジョージズ の空港の天気 - METARとTAF

ポイント・サリンス国際空港 ( TGPY / GND ) - グレナダ セントジョージズ
飛行場実況気象(Metar)
観測時間03/09 03:00 AST (03/09 07:00 UTC)
風向・風速東北東 4m/s
視程10km以上
天気現象
少しの雲 雲底高度 580m
気温25℃
湿度78%
気圧1014hPa
METARTGPY 090700Z 06007KT 9999 FEW019 25/21 Q1014 NOSIG
過去の天気等 Google飛行場航空写真 Wunderground天気予報

過去48時間のMETAR

飛行場予報(TAF)
発表時間: 3/09 00:00 AST (3/09 04:00 UTC)
予報対象時間: 9日2時 AST ~ 10日2時 AST
風向・風速東 6m/s
視程10km以上
少しの雲 雲底高度 550m
9日6時 AST ~ 9日8時 AST に徐々に
風向・風速東 9m/s 瞬間風速 14m/s
全天の4割程度の雲 雲底高度 610m
TGPY 090400Z 0906/1006 08012KT 9999 FEW018
BECMG 0910/0912 09017G27KT SCT020